Time;durP1;ratioP1;P1;durP2;ratioP2;P2;SDS_P1;SDS_P2;PMS_P1;PMS_P2;Temp;Humidity;BMP_temperature;BMP_pressure;BME280_temperature;BME280_humidity;BME280_pressure;Samples;Min_cycle;Max_cycle;Signal;HPM_P1;HPM_P2
2021/06/26 00:01:00;;;;;;;3.72;1.52;;;33.00;99.90;;;;;;5013161;28;20570;-88
2021/06/26 00:03:32;;;;;;;4.32;1.80;;;33.00;99.90;;;;;;5014282;28;20236;-88
2021/06/26 00:06:06;;;;;;;2.40;1.38;;;33.00;99.90;;;;;;5007225;28;20269;-94
2021/06/26 00:08:38;;;;;;;2.80;1.70;;;33.10;99.90;;;;;;5012880;28;20236;-94
2021/06/26 00:11:09;;;;;;;2.90;1.50;;;33.20;99.90;;;;;;5009845;28;20217;-90
2021/06/26 00:13:40;;;;;;;2.38;1.60;;;33.00;99.90;;;;;;4997098;28;20252;-89
2021/06/26 00:16:11;;;;;;;2.05;1.45;;;33.20;99.90;;;;;;4994308;28;20288;-90
2021/06/26 00:18:42;;;;;;;3.28;1.70;;;32.90;99.90;;;;;;4996374;28;20198;-90
2021/06/26 00:21:15;;;;;;;2.92;1.50;;;33.00;99.90;;;;;;4993861;28;20237;-90
2021/06/26 00:23:46;;;;;;;4.50;1.75;;;33.00;99.90;;;;;;5002657;28;20194;-89
2021/06/26 00:26:20;;;;;;;6.13;1.80;;;33.00;99.90;;;;;;5014890;28;20214;-89
2021/06/26 00:28:52;;;;;;;3.10;1.77;;;32.90;99.90;;;;;;5014422;28;20205;-88
2021/06/26 00:31:23;;;;;;;4.45;1.77;;;33.00;99.90;;;;;;4999472;28;20214;-94
2021/06/26 00:33:54;;;;;;;2.97;1.65;;;33.10;99.90;;;;;;5005140;28;20277;-94
2021/06/26 00:36:27;;;;;;;3.53;1.67;;;33.20;99.90;;;;;;4995508;28;20324;-93
2021/06/26 00:38:58;;;;;;;3.75;1.50;;;33.20;99.90;;;;;;5006724;28;20214;-90
2021/06/26 00:41:29;;;;;;;2.83;1.60;;;33.20;99.90;;;;;;5012905;28;20268;-90
2021/06/26 00:44:00;;;;;;;4.57;1.70;;;33.20;99.90;;;;;;5023710;28;20229;-88
2021/06/26 00:46:33;;;;;;;2.45;1.48;;;33.20;99.90;;;;;;5033044;28;20198;-93
2021/06/26 00:49:05;;;;;;;4.05;1.40;;;33.30;99.90;;;;;;4683046;28;10000066;-89
2021/06/26 00:51:38;;;;;;;5.32;1.42;;;33.70;99.90;;;;;;5016889;28;20710;-88
2021/06/26 00:54:09;;;;;;;3.83;1.83;;;34.10;99.90;;;;;;5011002;28;20272;-96
2021/06/26 00:56:40;;;;;;;2.80;1.60;;;34.30;99.90;;;;;;5012197;28;20729;-87
2021/06/26 00:59:13;;;;;;;2.13;1.35;;;34.60;99.90;;;;;;5013392;28;20240;-89
2021/06/26 01:01:44;;;;;;;2.22;1.50;;;35.10;99.90;;;;;;5011255;28;20205;-88
2021/06/26 01:04:15;;;;;;;1.65;1.30;;;35.30;99.90;;;;;;5014541;28;20285;-89
2021/06/26 01:06:48;;;;;;;1.75;1.30;;;35.80;99.90;;;;;;5017015;28;20213;-89
2021/06/26 01:09:19;;;;;;;3.58;1.50;;;36.30;99.90;;;;;;5001616;28;20627;-89
2021/06/26 01:11:51;;;;;;;3.80;1.60;;;35.60;99.90;;;;;;5006872;28;20217;-87
2021/06/26 01:14:23;;;;;;;4.63;1.98;;;35.60;99.90;;;;;;5027836;28;20252;-91
2021/06/26 01:16:54;;;;;;;3.25;1.48;;;36.10;99.90;;;;;;5039828;28;20222;-89
2021/06/26 01:19:25;;;;;;;2.55;1.42;;;36.20;99.90;;;;;;5034384;28;20286;-89
2021/06/26 01:21:59;;;;;;;5.43;1.55;;;36.00;99.90;;;;;;5030076;28;20190;-89
2021/06/26 01:24:32;;;;;;;7.95;1.33;;;36.40;99.90;;;;;;5021454;28;20578;-89
2021/06/26 01:27:03;;;;;;;4.15;1.67;;;36.60;99.90;;;;;;5019563;28;20213;-88
2021/06/26 01:29:34;;;;;;;4.97;1.55;;;36.80;99.90;;;;;;5024100;28;20217;-89
2021/06/26 01:32:11;;;;;;;2.22;1.40;;;36.90;99.90;;;;;;5017000;28;20734;-88
2021/06/26 01:34:42;;;;;;;5.40;1.63;;;37.30;99.00;;;;;;5016087;28;20259;-88
2021/06/26 01:37:13;;;;;;;2.60;1.27;;;37.40;98.70;;;;;;5015549;28;20316;-89
2021/06/26 01:39:46;;;;;;;3.38;1.10;;;37.30;97.70;;;;;;5016261;28;20260;-88
2021/06/26 01:42:17;;;;;;;1.88;1.10;;;37.20;96.70;;;;;;5016748;28;20584;-89
2021/06/26 01:44:47;;;;;;;2.40;1.13;;;36.90;96.60;;;;;;5015507;28;20238;-88
2021/06/26 01:47:18;;;;;;;4.88;1.13;;;36.70;97.20;;;;;;5014565;28;20220;-89
2021/06/26 01:49:49;;;;;;;2.67;1.02;;;36.80;96.80;;;;;;5015532;28;20233;-90
2021/06/26 01:52:20;;;;;;;3.33;0.82;;;36.90;96.00;;;;;;5013782;28;20420;-89
2021/06/26 01:54:52;;;;;;;2.55;1.00;;;36.80;95.50;;;;;;5004979;28;20312;-89
2021/06/26 01:57:23;;;;;;;3.03;1.20;;;36.60;95.80;;;;;;5015922;28;20272;-90
2021/06/26 01:59:54;;;;;;;3.55;1.33;;;36.80;96.10;;;;;;5015272;28;20235;-90
2021/06/26 02:02:25;;;;;;;2.95;1.17;;;36.80;96.10;;;;;;5015763;28;20205;-89
2021/06/26 02:04:55;;;;;;;2.08;1.20;;;37.00;95.60;;;;;;5014778;28;20218;-88
2021/06/26 02:07:26;;;;;;;1.77;1.48;;;37.20;95.10;;;;;;5014201;28;20221;-88
2021/06/26 02:09:59;;;;;;;1.75;1.20;;;36.80;95.50;;;;;;5012405;28;20274;-88
2021/06/26 02:12:30;;;;;;;1.10;0.90;;;36.80;95.20;;;;;;5013667;28;20232;-87
2021/06/26 02:15:00;;;;;;;7.95;1.45;;;36.60;94.70;;;;;;5014505;28;20974;-88
2021/06/26 02:17:32;;;;;;;2.75;0.90;;;36.80;94.30;;;;;;5016280;28;20320;-89
2021/06/26 02:20:03;;;;;;;3.58;0.98;;;36.70;94.50;;;;;;5001193;28;20669;-88
2021/06/26 02:22:34;;;;;;;3.38;1.00;;;36.70;94.60;;;;;;5013018;28;20699;-89
2021/06/26 02:25:07;;;;;;;2.15;1.10;;;36.60;94.30;;;;;;5014379;28;20233;-87
2021/06/26 02:27:39;;;;;;;3.83;1.15;;;36.80;94.10;;;;;;5014225;28;20288;-89
2021/06/26 02:30:12;;;;;;;1.80;0.95;;;37.20;93.90;;;;;;5013680;28;20659;-88
2021/06/26 02:32:43;;;;;;;1.50;0.90;;;36.80;94.30;;;;;;5014445;28;20241;-89
2021/06/26 02:35:14;;;;;;;1.83;0.70;;;36.60;94.40;;;;;;4995476;28;20260;-88
2021/06/26 02:37:46;;;;;;;2.22;0.88;;;36.60;93.70;;;;;;4996014;28;20277;-86
2021/06/26 02:40:19;;;;;;;1.48;1.08;;;35.90;93.70;;;;;;4993953;28;20793;-88
2021/06/26 02:42:51;;;;;;;1.77;1.00;;;34.70;95.60;;;;;;4995687;28;20252;-89
2021/06/26 02:45:21;;;;;;;3.47;1.15;;;33.40;96.50;;;;;;4996153;28;20651;-89
2021/06/26 02:47:52;;;;;;;1.92;1.00;;;32.80;96.10;;;;;;4995965;28;20256;-89
2021/06/26 02:50:26;;;;;;;3.25;1.10;;;32.00;97.10;;;;;;4994847;28;20719;-89
2021/06/26 02:52:57;;;;;;;2.85;1.23;;;31.70;97.40;;;;;;4996434;28;20203;-88
2021/06/26 02:55:30;;;;;;;1.80;1.10;;;31.40;98.80;;;;;;4995530;28;20261;-89
2021/06/26 02:58:01;;;;;;;3.15;1.13;;;31.00;98.30;;;;;;4995249;28;20238;-89
2021/06/26 03:00:32;;;;;;;1.25;0.95;;;30.80;98.70;;;;;;4995085;28;20230;-89
2021/06/26 03:03:04;;;;;;;3.55;1.38;;;30.50;99.90;;;;;;4995826;28;20206;-89
2021/06/26 03:05:36;;;;;;;2.88;1.25;;;30.20;99.90;;;;;;4995719;28;20302;-89
2021/06/26 03:08:08;;;;;;;4.97;1.38;;;29.90;99.90;;;;;;4998145;28;20242;-89
2021/06/26 03:10:41;;;;;;;1.70;1.10;;;29.70;99.90;;;;;;5014544;28;20234;-89
2021/06/26 03:13:13;;;;;;;1.35;0.85;;;29.60;99.90;;;;;;5023905;28;20236;-90
2021/06/26 03:15:43;;;;;;;3.17;1.00;;;29.40;99.90;;;;;;5030814;28;20212;-89
2021/06/26 03:18:15;;;;;;;1.97;1.00;;;29.30;99.90;;;;;;5036608;28;20241;-89
2021/06/26 03:20:46;;;;;;;2.75;0.93;;;29.30;99.90;;;;;;5036679;28;20197;-90
2021/06/26 03:23:17;;;;;;;1.40;0.90;;;29.20;99.90;;;;;;5029772;28;20317;-90
2021/06/26 03:25:49;;;;;;;4.60;1.13;;;29.10;99.90;;;;;;5023773;28;20201;-89
2021/06/26 03:28:21;;;;;;;3.20;1.00;;;29.10;99.90;;;;;;5035843;28;20228;-88
2021/06/26 03:30:52;;;;;;;2.50;0.90;;;29.00;99.90;;;;;;5034963;28;20205;-89
2021/06/26 03:33:22;;;;;;;2.40;0.90;;;28.90;99.90;;;;;;5034425;28;20244;-88
2021/06/26 03:35:54;;;;;;;1.80;0.90;;;28.70;99.90;;;;;;5034588;28;20711;-89
2021/06/26 03:38:24;;;;;;;1.53;0.83;;;28.60;99.90;;;;;;5034422;28;20228;-89
2021/06/26 03:40:57;;;;;;;2.60;1.03;;;28.50;99.90;;;;;;5033622;28;20209;-89
2021/06/26 03:43:28;;;;;;;3.50;1.03;;;28.40;99.90;;;;;;5034306;28;20232;-89
2021/06/26 03:45:59;;;;;;;1.17;0.93;;;28.20;99.90;;;;;;5033582;28;20665;-88
2021/06/26 03:48:30;;;;;;;2.63;1.13;;;28.10;99.90;;;;;;5034454;28;20240;-89
2021/06/26 03:51:00;;;;;;;3.37;0.93;;;28.00;99.90;;;;;;5032142;28;20292;-89
2021/06/26 03:53:32;;;;;;;3.57;0.93;;;27.90;99.90;;;;;;5035134;28;20240;-88
2021/06/26 03:56:05;;;;;;;2.73;1.10;;;27.80;99.90;;;;;;5033549;28;20213;-89
2021/06/26 03:58:36;;;;;;;1999.90;166.87;;;27.70;99.90;;;;;;5018489;28;20332;-95
2021/06/26 04:01:07;;;;;;;4.33;1.93;;;27.50;99.90;;;;;;5014292;28;20194;-89
2021/06/26 04:03:39;;;;;;;1.87;1.10;;;27.40;99.90;;;;;;5007819;28;20235;-89
2021/06/26 04:06:09;;;;;;;4.07;1.40;;;27.20;99.90;;;;;;5013906;28;20221;-89
2021/06/26 04:08:41;;;;;;;3.17;1.40;;;27.10;99.90;;;;;;5013783;28;20244;-89
2021/06/26 04:11:14;;;;;;;3.60;1.23;;;27.00;99.90;;;;;;5014342;28;20286;-89
2021/06/26 04:13:45;;;;;;;1.80;0.87;;;26.80;99.90;;;;;;5014897;28;20237;-90
2021/06/26 04:16:15;;;;;;;3.13;1.10;;;26.70;99.90;;;;;;5014191;28;20202;-88
2021/06/26 04:18:47;;;;;;;7.37;1.70;;;26.60;99.90;;;;;;5014285;28;20225;-87
2021/06/26 04:21:18;;;;;;;3.23;1.77;;;26.40;99.90;;;;;;5033058;28;20296;-89
2021/06/26 04:23:49;;;;;;;4.70;1.27;;;26.30;99.90;;;;;;5016389;28;20241;-89
2021/06/26 04:26:23;;;;;;;4.40;1.87;;;26.10;99.90;;;;;;5013805;28;20202;-89
2021/06/26 04:28:53;;;;;;;6.00;1.73;;;26.10;99.90;;;;;;4995060;28;20289;-89
2021/06/26 04:31:25;;;;;;;2.53;1.50;;;25.90;99.90;;;;;;5007015;28;20256;-89
2021/06/26 04:33:56;;;;;;;2.90;1.30;;;25.90;99.90;;;;;;5014040;28;20225;-89
2021/06/26 04:36:27;;;;;;;2.30;1.20;;;25.80;99.90;;;;;;5013846;28;20248;-89
2021/06/26 04:38:57;;;;;;;1.83;1.00;;;25.70;99.90;;;;;;5013527;28;20253;-89
2021/06/26 04:41:30;;;;;;;3.07;1.30;;;25.70;99.90;;;;;;5013295;28;20209;-89
2021/06/26 04:44:01;;;;;;;3.47;0.97;;;25.60;99.90;;;;;;5010743;28;20332;-88
2021/06/26 04:46:33;;;;;;;1.57;1.10;;;25.60;99.90;;;;;;5013707;28;20295;-88
2021/06/26 04:49:05;;;;;;;1.37;1.13;;;25.50;99.90;;;;;;5012838;28;20209;-87
2021/06/26 04:51:36;;;;;;;3.67;1.00;;;25.50;99.90;;;;;;5012750;28;20821;-88
2021/06/26 04:54:07;;;;;;;4.33;1.27;;;25.50;99.90;;;;;;5000162;28;20237;-88
2021/06/26 04:56:40;;;;;;;2.27;1.00;;;25.40;99.90;;;;;;5009664;28;20730;-89
2021/06/26 04:59:12;;;;;;;6.20;1.50;;;25.40;99.90;;;;;;5013511;28;20771;-88
2021/06/26 05:01:43;;;;;;;6.60;0.97;;;25.40;99.90;;;;;;5014135;28;20340;-88
2021/06/26 05:04:14;;;;;;;13.53;2.00;;;25.30;99.90;;;;;;5017623;28;20212;-88
2021/06/26 05:06:45;;;;;;;5.60;1.40;;;25.30;99.90;;;;;;5012106;28;20218;-88
2021/06/26 05:09:16;;;;;;;3.17;1.30;;;25.20;99.90;;;;;;5018138;28;20216;-88
2021/06/26 05:11:48;;;;;;;3.00;1.50;;;25.10;99.90;;;;;;5016844;28;20306;-88
2021/06/26 05:14:20;;;;;;;3.03;1.40;;;25.00;99.90;;;;;;5017987;28;20205;-87
2021/06/26 05:16:51;;;;;;;2.07;1.20;;;24.90;99.90;;;;;;5018064;28;20225;-89
2021/06/26 05:19:23;;;;;;;4.13;1.30;;;24.70;99.90;;;;;;5018433;28;20268;-89
2021/06/26 05:21:53;;;;;;;3.17;1.30;;;24.70;99.90;;;;;;5017133;28;20209;-90
2021/06/26 05:24:24;;;;;;;2.20;1.00;;;24.60;99.90;;;;;;5018224;28;20237;-90
2021/06/26 05:26:57;;;;;;;3.10;1.00;;;24.50;99.90;;;;;;5017743;28;20264;-89
2021/06/26 05:29:28;;;;;;;1.77;0.97;;;24.50;99.90;;;;;;5015192;28;20252;-89
2021/06/26 05:31:59;;;;;;;1.27;0.80;;;24.50;99.90;;;;;;5015795;28;20731;-89
2021/06/26 05:34:30;;;;;;;10.53;3.87;;;24.50;99.90;;;;;;5016754;28;20217;-89
2021/06/26 05:37:01;;;;;;;3.70;0.80;;;24.40;99.90;;;;;;5000126;28;20206;-89
2021/06/26 05:39:33;;;;;;;1.70;0.87;;;24.30;99.90;;;;;;4996994;28;20234;-89
2021/06/26 05:42:06;;;;;;;2.67;0.90;;;24.30;99.90;;;;;;4996557;28;20249;-89
2021/06/26 05:44:37;;;;;;;1.83;0.80;;;24.20;99.90;;;;;;4998051;28;20245;-89
2021/06/26 05:47:09;;;;;;;3.90;1.00;;;24.20;99.90;;;;;;5012051;28;20303;-88
2021/06/26 05:49:40;;;;;;;3.23;1.10;;;24.10;99.90;;;;;;5034521;28;20212;-89
2021/06/26 05:52:14;;;;;;;1.30;0.90;;;24.10;99.90;;;;;;5037422;28;20232;-89
2021/06/26 05:54:46;;;;;;;1.97;1.10;;;24.10;99.90;;;;;;5035902;28;20200;-89
2021/06/26 05:57:19;;;;;;;3.77;1.20;;;24.00;99.90;;;;;;5019166;28;20561;-89
2021/06/26 05:59:49;;;;;;;3.23;1.40;;;23.90;99.90;;;;;;5016229;28;20324;-92
2021/06/26 06:02:21;;;;;;;2.43;1.23;;;23.90;99.90;;;;;;5033470;28;20205;-88
2021/06/26 06:04:52;;;;;;;3.80;1.17;;;23.80;99.90;;;;;;5016755;28;20217;-90
2021/06/26 06:07:23;;;;;;;1.60;1.10;;;23.80;99.90;;;;;;5016979;28;20567;-89
2021/06/26 06:09:54;;;;;;;1.47;1.00;;;23.70;99.90;;;;;;5016357;28;20217;-87
2021/06/26 06:12:28;;;;;;;4.23;1.20;;;23.70;99.90;;;;;;5016933;28;20285;-89
2021/06/26 06:15:02;;;;;;;1.93;1.13;;;23.70;99.90;;;;;;5008801;28;20202;-89
2021/06/26 06:17:33;;;;;;;1.50;1.00;;;23.70;99.90;;;;;;5016376;28;20236;-89
2021/06/26 06:20:05;;;;;;;1.43;1.10;;;23.60;99.90;;;;;;5015408;28;20241;-89
2021/06/26 06:22:36;;;;;;;2.43;1.20;;;23.60;99.90;;;;;;5017693;28;20240;-89
2021/06/26 06:25:10;;;;;;;2.07;1.23;;;23.60;99.90;;;;;;5016832;28;20208;-89
2021/06/26 06:27:42;;;;;;;2.53;1.07;;;23.50;99.90;;;;;;5017782;28;20252;-89
2021/06/26 06:30:14;;;;;;;2.93;1.10;;;23.40;99.90;;;;;;5019779;28;20213;-89
2021/06/26 06:32:46;;;;;;;1.53;1.07;;;23.40;99.90;;;;;;5018956;28;20300;-88
2021/06/26 06:35:19;;;;;;;1.77;1.03;;;23.40;99.90;;;;;;5021476;28;20236;-89
2021/06/26 06:37:51;;;;;;;2.53;1.03;;;23.40;99.90;;;;;;5031273;28;20198;-89
2021/06/26 06:40:22;;;;;;;3.60;1.23;;;23.30;99.90;;;;;;5025493;28;20210;-89
2021/06/26 06:42:55;;;;;;;2.20;1.20;;;23.30;99.90;;;;;;5037341;28;20213;-90
2021/06/26 06:45:25;;;;;;;2.93;1.20;;;23.20;99.90;;;;;;5036900;28;20189;-89
2021/06/26 06:47:58;;;;;;;2.30;1.03;;;23.10;99.90;;;;;;5035016;28;20273;-89
2021/06/26 06:50:28;;;;;;;3.17;1.30;;;23.10;99.90;;;;;;5021577;28;20212;-89
2021/06/26 06:53:02;;;;;;;1.47;1.10;;;23.00;99.90;;;;;;5021404;28;20658;-89
2021/06/26 06:55:33;;;;;;;2.20;1.10;;;23.00;99.90;;;;;;5021443;28;20198;-88
2021/06/26 06:58:06;;;;;;;2.13;1.10;;;23.00;99.90;;;;;;5016794;28;20229;-89
2021/06/26 07:00:37;;;;;;;1.20;1.10;;;22.90;99.90;;;;;;5015083;28;20271;-89
2021/06/26 07:03:08;;;;;;;2.90;1.10;;;22.90;99.90;;;;;;5015301;28;20217;-89
2021/06/26 07:05:39;;;;;;;1.57;0.93;;;22.80;99.90;;;;;;5015346;28;20213;-89
2021/06/26 07:08:10;;;;;;;1.53;1.00;;;22.80;99.90;;;;;;5015267;28;20252;-89
2021/06/26 07:10:41;;;;;;;1.80;1.00;;;22.90;99.90;;;;;;5014283;28;20650;-89
2021/06/26 07:13:14;;;;;;;1.73;1.20;;;22.80;99.90;;;;;;5005449;28;20206;-89
2021/06/26 07:15:46;;;;;;;1.80;1.00;;;22.80;99.90;;;;;;5014602;28;20208;-89
2021/06/26 07:18:16;;;;;;;2.73;1.00;;;22.70;99.90;;;;;;5018864;28;20244;-89
2021/06/26 07:20:47;;;;;;;2.90;1.13;;;22.70;99.90;;;;;;5014087;28;20209;-89
2021/06/26 07:23:18;;;;;;;3.67;1.30;;;22.60;99.90;;;;;;5014963;28;20233;-89
2021/06/26 07:25:49;;;;;;;2.63;1.17;;;22.60;99.90;;;;;;5015876;28;20233;-88
2021/06/26 07:28:22;;;;;;;2.93;1.10;;;22.60;99.90;;;;;;5017804;28;20210;-87
2021/06/26 07:30:53;;;;;;;1.37;1.10;;;22.60;99.90;;;;;;5021474;28;20205;-88
2021/06/26 07:33:25;;;;;;;1.20;1.10;;;22.60;99.90;;;;;;5019312;28;20252;-88
2021/06/26 07:35:56;;;;;;;4.67;1.43;;;22.50;99.90;;;;;;5018467;28;20217;-87
2021/06/26 07:38:26;;;;;;;2.10;1.70;;;22.40;99.90;;;;;;5014632;28;20268;-88
2021/06/26 07:40:57;;;;;;;6.00;1.50;;;22.40;99.90;;;;;;5017890;28;20205;-88
2021/06/26 07:43:30;;;;;;;5.63;1.80;;;22.50;99.90;;;;;;5015247;28;20249;-88
2021/06/26 07:46:01;;;;;;;2.30;1.53;;;22.40;99.90;;;;;;5012893;28;20240;-88
2021/06/26 07:48:32;;;;;;;3.63;1.60;;;22.40;99.90;;;;;;5022015;28;20212;-88
2021/06/26 07:51:04;;;;;;;3.27;1.93;;;22.30;99.90;;;;;;5014746;28;20201;-88
2021/06/26 07:53:35;;;;;;;1.77;1.40;;;22.30;99.90;;;;;;5015425;28;20224;-88
2021/06/26 07:56:07;;;;;;;3.03;1.47;;;22.30;99.90;;;;;;5014667;28;20275;-88
2021/06/26 07:58:40;;;;;;;1.73;1.40;;;22.30;99.90;;;;;;5022310;28;20202;-88
2021/06/26 08:01:11;;;;;;;2.33;1.70;;;22.20;99.90;;;;;;5017965;28;20225;-87
2021/06/26 08:03:44;;;;;;;3.17;1.53;;;22.20;99.90;;;;;;5023822;28;20616;-88
2021/06/26 08:06:17;;;;;;;2.50;1.40;;;22.20;99.90;;;;;;5014722;28;20558;-88
2021/06/26 08:08:48;;;;;;;3.87;1.53;;;22.10;99.90;;;;;;5016232;28;20202;-88
2021/06/26 08:11:20;;;;;;;4.83;1.30;;;22.10;99.90;;;;;;5015011;28;20233;-88
2021/06/26 08:13:57;;;;;;;5.70;1.47;;;22.10;99.90;;;;;;5033932;28;20200;-88
2021/06/26 08:19:28;;;;;;;3.63;1.50;;;22.00;99.90;;;;;;5013293;28;20289;-87
2021/06/26 08:22:08;;;;;;;1.33;1.20;;;21.90;99.90;;;;;;5016806;28;20210;-88
2021/06/26 08:24:40;;;;;;;2.67;1.30;;;21.90;99.90;;;;;;5028067;28;20534;-88
2021/06/26 08:27:12;;;;;;;2.57;1.70;;;21.90;99.90;;;;;;5027433;28;20563;-89
2021/06/26 08:29:46;;;;;;;3.13;1.33;;;21.80;99.90;;;;;;5019715;28;20283;-88
2021/06/26 08:32:16;;;;;;;3.80;1.30;;;21.70;99.90;;;;;;5001588;28;20206;-88
2021/06/26 08:34:48;;;;;;;3.03;1.40;;;21.70;99.90;;;;;;5014661;28;20245;-89
2021/06/26 08:37:35;;;;;;;2.20;1.37;;;21.70;99.90;;;;;;5013828;28;20685;-88
2021/06/26 08:40:08;;;;;;;2.03;1.33;;;21.70;99.90;;;;;;4996471;28;20251;-88
2021/06/26 08:42:39;;;;;;;2.80;1.30;;;21.70;99.90;;;;;;5013628;28;20209;-88
2021/06/26 08:45:16;;;;;;;3.50;1.43;;;21.70;99.90;;;;;;5013941;28;20245;-87
2021/06/26 08:47:49;;;;;;;2.00;1.20;;;21.70;99.90;;;;;;5013864;28;20209;-88
2021/06/26 08:50:21;;;;;;;2.73;1.50;;;21.60;99.90;;;;;;5013447;28;20229;-88
2021/06/26 08:52:52;;;;;;;1.53;1.33;;;21.60;99.90;;;;;;5013608;28;20663;-88
2021/06/26 08:55:25;;;;;;;2.83;1.33;;;21.60;99.90;;;;;;5013883;28;20205;-88
2021/06/26 08:57:55;;;;;;;2.73;1.50;;;21.60;99.90;;;;;;5013249;28;20674;-88
2021/06/26 09:00:30;;;;;;;2.53;1.50;;;21.60;99.90;;;;;;5012236;28;20325;-88
2021/06/26 09:03:12;;;;;;;2.53;1.47;;;21.60;99.90;;;;;;5013364;28;20239;-88
2021/06/26 09:05:44;;;;;;;2.63;1.70;;;21.60;99.90;;;;;;5013636;28;20256;-88
2021/06/26 09:08:15;;;;;;;4.67;2.03;;;21.60;99.90;;;;;;5013354;28;20205;-88
2021/06/26 09:10:49;;;;;;;2.90;1.83;;;21.60;99.90;;;;;;5013483;28;20236;-89
2021/06/26 09:13:23;;;;;;;2.33;1.90;;;21.60;99.90;;;;;;5012617;28;20248;-88
2021/06/26 09:16:09;;;;;;;2.13;1.93;;;21.50;99.90;;;;;;5012820;28;20213;-88
2021/06/26 09:18:44;;;;;;;3.33;1.67;;;21.50;99.90;;;;;;5013451;28;20210;-89
2021/06/26 09:21:24;;;;;;;2.80;1.83;;;21.50;99.90;;;;;;5012614;28;20315;-88
2021/06/26 09:24:04;;;;;;;3.67;2.30;;;21.40;99.90;;;;;;5013903;28;20618;-89
2021/06/26 09:26:36;;;;;;;5.40;2.00;;;21.50;99.90;;;;;;5013468;28;20325;-88
2021/06/26 09:29:12;;;;;;;5.27;1.97;;;21.40;99.90;;;;;;5015842;28;20221;-88
2021/06/26 09:31:53;;;;;;;4.03;2.30;;;21.30;99.90;;;;;;5016866;28;20351;-88
2021/06/26 09:34:37;;;;;;;3.37;2.00;;;21.30;99.90;;;;;;5013764;28;20213;-87
2021/06/26 09:37:10;;;;;;;2.50;2.00;;;21.30;99.90;;;;;;5013595;28;20260;-89
2021/06/26 09:39:41;;;;;;;2.73;1.83;;;21.20;99.90;;;;;;5013299;28;20241;-88
2021/06/26 09:42:20;;;;;;;3.53;1.80;;;21.20;99.90;;;;;;5012855;28;20210;-88
2021/06/26 09:44:55;;;;;;;3.17;2.00;;;21.10;99.90;;;;;;5009267;28;20285;-88
2021/06/26 09:47:34;;;;;;;3.20;2.00;;;21.00;99.90;;;;;;4993252;28;20296;-88
2021/06/26 09:50:13;;;;;;;4.17;2.10;;;21.00;99.90;;;;;;4994563;28;20210;-88
2021/06/26 09:52:48;;;;;;;3.60;2.10;;;21.00;99.90;;;;;;4997011;28;20202;-88
2021/06/26 09:55:25;;;;;;;4.23;2.07;;;20.90;99.90;;;;;;4996729;28;20201;-88
2021/06/26 09:57:58;;;;;;;3.20;1.60;;;20.90;99.90;;;;;;4997012;28;20272;-88
2021/06/26 10:00:31;;;;;;;4.80;2.17;;;20.90;99.90;;;;;;4995445;28;20234;-88
2021/06/26 10:03:04;;;;;;;4.20;2.30;;;20.90;99.90;;;;;;4996243;28;20214;-88
2021/06/26 10:05:35;;;;;;;3.30;1.90;;;20.80;99.90;;;;;;4997190;28;20642;-88
2021/06/26 10:08:08;;;;;;;8.80;2.20;;;20.70;99.90;;;;;;4997906;28;20699;-88
2021/06/26 10:10:39;;;;;;;6.40;1.90;;;20.70;99.90;;;;;;4997023;28;20261;-88
2021/06/26 10:13:14;;;;;;;2.93;2.00;;;20.60;99.90;;;;;;4997186;28;20269;-88
2021/06/26 10:15:45;;;;;;;2.50;2.10;;;20.60;99.90;;;;;;5011764;28;20240;-88
2021/06/26 10:18:19;;;;;;;3.23;2.37;;;20.60;99.90;;;;;;5015671;28;20699;-87
2021/06/26 10:20:50;;;;;;;4.00;2.10;;;20.60;99.90;;;;;;5014872;28;20229;-88
2021/06/26 10:23:22;;;;;;;1.97;1.57;;;20.60;99.90;;;;;;5016037;28;20202;-88
2021/06/26 10:25:53;;;;;;;3.77;2.00;;;20.60;99.90;;;;;;5040628;28;20634;-88
2021/06/26 10:28:24;;;;;;;3.47;2.10;;;20.50;99.90;;;;;;5029941;28;20214;-86
2021/06/26 10:31:02;;;;;;;2.70;2.00;;;20.50;99.90;;;;;;5019628;28;20268;-88
2021/06/26 10:33:35;;;;;;;3.83;2.10;;;20.50;99.90;;;;;;5018861;28;20271;-88
2021/06/26 10:36:06;;;;;;;4.27;1.80;;;20.40;99.90;;;;;;5015979;28;20577;-88
2021/06/26 10:38:47;;;;;;;4.90;2.17;;;20.40;99.90;;;;;;5016989;28;20241;-88
2021/06/26 10:41:19;;;;;;;2.63;1.90;;;20.40;99.90;;;;;;5015704;28;20712;-88
2021/06/26 10:43:58;;;;;;;2.60;2.10;;;20.30;99.90;;;;;;5017923;28;20214;-88
2021/06/26 10:46:29;;;;;;;4.37;2.50;;;20.30;99.90;;;;;;4996165;28;20714;-87
2021/06/26 10:49:05;;;;;;;3.43;2.07;;;20.30;99.90;;;;;;4997168;28;20218;-87
2021/06/26 10:51:37;;;;;;;5.43;2.30;;;20.20;99.90;;;;;;5002276;28;20237;-88
2021/06/26 10:54:13;;;;;;;6.27;2.30;;;20.20;99.90;;;;;;5015823;28;20206;-88
2021/06/26 10:56:45;;;;;;;3.83;2.30;;;20.20;99.90;;;;;;5017599;28;20217;-88
2021/06/26 10:59:17;;;;;;;2.53;2.00;;;20.20;99.90;;;;;;5030077;28;20280;-87
2021/06/26 11:01:56;;;;;;;2.43;2.23;;;20.20;99.90;;;;;;5016484;28;20233;-87
2021/06/26 11:04:29;;;;;;;4.70;2.03;;;20.10;99.90;;;;;;5016615;28;20204;-88
2021/06/26 11:07:09;;;;;;;2.50;2.30;;;20.10;99.90;;;;;;5015663;28;20578;-87
2021/06/26 11:09:41;;;;;;;3.90;2.27;;;20.10;99.90;;;;;;5015341;28;20217;-87
2021/06/26 11:12:14;;;;;;;3.93;2.20;;;20.10;99.90;;;;;;5013228;28;20213;-87
2021/06/26 11:14:52;;;;;;;2.30;2.10;;;20.10;99.90;;;;;;4995282;28;20202;-87
2021/06/26 11:17:38;;;;;;;4.20;2.10;;;20.10;99.90;;;;;;4994416;28;20698;-87
2021/06/26 11:20:14;;;;;;;2.53;2.13;;;20.10;99.90;;;;;;4994795;28;20679;-87
2021/06/26 11:22:45;;;;;;;4.17;2.43;;;20.10;99.90;;;;;;4996091;28;20230;-87
2021/06/26 11:25:16;;;;;;;3.17;2.23;;;20.00;99.90;;;;;;4996264;28;20265;-87
2021/06/26 11:27:47;;;;;;;5.47;2.00;;;19.90;99.90;;;;;;5002139;28;20248;-86
2021/06/26 11:30:19;;;;;;;2.13;1.83;;;19.90;99.90;;;;;;5005610;28;20250;-88
2021/06/26 11:32:58;;;;;;;2.90;2.00;;;19.90;99.90;;;;;;4995792;28;20210;-87
2021/06/26 11:35:36;;;;;;;5.07;2.10;;;20.00;99.90;;;;;;4995475;28;20619;-87
2021/06/26 11:38:15;;;;;;;3.93;2.40;;;19.90;99.90;;;;;;4995699;28;20288;-87
2021/06/26 11:40:46;;;;;;;4.27;2.27;;;19.90;99.90;;;;;;5004566;28;20202;-87
2021/06/26 11:43:17;;;;;;;3.10;2.17;;;19.90;99.90;;;;;;5015564;28;20635;-88
2021/06/26 11:45:50;;;;;;;2.93;1.77;;;19.90;99.90;;;;;;5014888;28;20210;-88
2021/06/26 11:48:22;;;;;;;6.73;2.40;;;19.90;99.90;;;;;;5015525;28;20236;-88
2021/06/26 11:50:56;;;;;;;3.07;2.20;;;19.90;99.90;;;;;;5016615;28;20204;-88
2021/06/26 11:53:29;;;;;;;2.50;2.03;;;19.90;99.90;;;;;;5015624;28;20212;-88
2021/06/26 11:56:01;;;;;;;4.23;2.10;;;19.80;99.90;;;;;;5016266;28;20217;-88
2021/06/26 11:58:39;;;;;;;4.53;2.50;;;19.80;99.90;;;;;;5019103;28;20206;-87
2021/06/26 12:01:11;;;;;;;2.77;2.27;;;19.80;99.90;;;;;;5018796;28;20247;-89
2021/06/26 12:03:43;;;;;;;2.37;2.17;;;19.80;99.90;;;;;;5020336;28;20382;-87
2021/06/26 12:06:18;;;;;;;4.40;2.20;;;19.80;99.90;;;;;;5030482;28;20205;-88
2021/06/26 12:08:52;;;;;;;4.33;2.50;;;19.80;99.90;;;;;;5034748;28;20249;-89
2021/06/26 12:11:24;;;;;;;3.47;2.33;;;19.80;99.90;;;;;;5064146;28;20198;-87
2021/06/26 12:13:57;;;;;;;4.00;2.53;;;19.80;99.90;;;;;;5021678;28;20206;-87
2021/06/26 12:16:29;;;;;;;3.47;2.50;;;19.80;99.90;;;;;;5018088;28;20228;-87
2021/06/26 12:19:04;;;;;;;3.83;2.57;;;19.80;99.90;;;;;;5017420;28;20213;-87
2021/06/26 12:21:45;;;;;;;4.77;2.63;;;19.80;99.90;;;;;;5014360;28;20231;-87
2021/06/26 12:24:27;;;;;;;3.60;2.20;;;19.80;99.90;;;;;;5013550;28;20724;-87
2021/06/26 12:27:13;;;;;;;4.87;2.33;;;19.80;99.90;;;;;;5014278;28;20216;-86
2021/06/26 12:29:47;;;;;;;5.43;2.80;;;19.90;99.90;;;;;;5002569;28;20212;-87
2021/06/26 12:32:26;;;;;;;4.10;2.67;;;19.90;99.90;;;;;;5013782;28;20201;-87
2021/06/26 12:34:57;;;;;;;4.70;2.70;;;19.90;99.90;;;;;;5014017;28;20292;-87
2021/06/26 12:37:34;;;;;;;4.87;2.60;;;20.00;99.90;;;;;;5013782;28;20201;-87
2021/06/26 12:40:11;;;;;;;5.90;2.47;;;20.00;99.90;;;;;;5012520;28;20985;-88
2021/06/26 12:42:55;;;;;;;5.00;2.60;;;20.00;99.90;;;;;;5013983;28;20252;-87
2021/06/26 12:45:33;;;;;;;6.40;2.40;;;20.00;99.90;;;;;;5013260;28;20194;-88
2021/06/26 12:48:10;;;;;;;5.97;2.70;;;20.00;99.90;;;;;;5013551;28;20217;-87
2021/06/26 12:50:55;;;;;;;4.50;2.50;;;20.10;99.90;;;;;;5012480;28;20201;-87
2021/06/26 12:53:36;;;;;;;3.37;2.73;;;20.00;99.90;;;;;;5013406;28;20236;-87
2021/06/26 12:56:13;;;;;;;3.33;2.40;;;20.00;99.90;;;;;;5012877;28;20209;-87
2021/06/26 12:58:57;;;;;;;4.43;2.60;;;20.00;99.90;;;;;;5013377;28;20212;-87
2021/06/26 13:01:37;;;;;;;4.90;2.33;;;20.10;99.90;;;;;;5012132;28;20212;-87
2021/06/26 13:04:10;;;;;;;3.10;2.23;;;20.10;99.90;;;;;;5013545;28;20209;-88
2021/06/26 13:06:49;;;;;;;4.07;2.37;;;20.20;99.90;;;;;;5045108;28;20240;-88
2021/06/26 13:09:33;;;;;;;4.87;2.43;;;20.20;99.90;;;;;;5013507;28;20213;-88
2021/06/26 13:12:12;;;;;;;2.60;2.33;;;20.20;99.90;;;;;;5012505;28;20214;-87
2021/06/26 13:14:46;;;;;;;3.40;2.53;;;20.30;99.90;;;;;;5013592;28;20658;-87
2021/06/26 13:17:19;;;;;;;3.47;2.23;;;20.30;99.90;;;;;;5013495;28;20237;-87